Time;durP1;ratioP1;P1;durP2;ratioP2;P2;SDS_P1;SDS_P2;PMS_P1;PMS_P2;Temp;Humidity;BMP_temperature;BMP_pressure;BME280_temperature;BME280_humidity;BME280_pressure;Samples;Min_cycle;Max_cycle;Signal;HPM_P1;HPM_P2
2023/11/05 00:00:48;;;;;;;;;9.50;8.75;;;;;12.68;100.00;96255.75;6228039;28;96694;-65
2023/11/05 00:03:51;;;;;;;;;6.00;6.00;;;;;12.63;100.00;96253.13;6179357;28;97177;-65
2023/11/05 00:06:54;;;;;;;;;7.00;7.00;;;;;12.46;100.00;96261.03;6202986;28;98453;-65
2023/11/05 00:09:58;;;;;;;;;6.50;5.50;;;;;12.37;100.00;96254.69;6204788;28;96242;-66
2023/11/05 00:13:01;;;;;;;;;6.60;6.00;;;;;12.27;100.00;96249.44;6205180;28;96387;-66
2023/11/05 00:16:06;;;;;;;;;5.00;4.40;;;;;12.46;100.00;96261.81;6220741;28;98418;-66
2023/11/05 00:19:09;;;;;;;;;7.00;6.00;;;;;12.67;100.00;96254.13;6205260;28;96261;-66
2023/11/05 00:22:13;;;;;;;;;7.00;7.00;;;;;12.55;100.00;96251.94;6204812;28;96340;-65
2023/11/05 00:25:16;;;;;;;;;5.25;5.00;;;;;12.58;100.00;96245.94;6205823;28;96294;-66
2023/11/05 00:28:19;;;;;;;;;5.00;5.00;;;;;12.49;100.00;96242.31;6206639;28;96343;-66
2023/11/05 00:31:24;;;;;;;;;6.20;6.20;;;;;12.47;100.00;96252.59;6206437;28;96379;-66
2023/11/05 00:34:27;;;;;;;;;9.60;9.00;;;;;12.36;100.00;96255.81;6204875;28;96971;-66
2023/11/05 00:37:30;;;;;;;;;8.00;8.00;;;;;12.12;100.00;96242.41;6204732;28;98497;-65
2023/11/05 00:40:34;;;;;;;;;8.75;8.75;;;;;12.23;100.00;96245.75;6221201;28;99133;-65
2023/11/05 00:43:37;;;;;;;;;9.40;8.40;;;;;12.20;100.00;96238.25;6230700;28;96363;-65
2023/11/05 00:46:41;;;;;;;;;13.00;13.00;;;;;12.25;100.00;96235.47;6230439;28;96908;-66
2023/11/05 00:49:44;;;;;;;;;7.80;6.80;;;;;12.21;100.00;96232.56;6208817;28;98386;-66
2023/11/05 00:52:48;;;;;;;;;11.00;10.80;;;;;12.20;100.00;96246.34;6204829;28;96270;-65
2023/11/05 00:55:52;;;;;;;;;9.25;9.25;;;;;12.21;100.00;96242.56;6204682;28;96390;-64
2023/11/05 00:58:56;;;;;;;;;11.50;11.50;;;;;12.11;100.00;96240.81;6202777;28;96689;-65
2023/11/05 01:02:00;;;;;;;;;8.75;8.75;;;;;11.86;100.00;96233.13;6187636;28;96646;-65
2023/11/05 01:05:04;;;;;;;;;10.50;10.00;;;;;11.59;100.00;96221.09;6212693;28;96477;-65
2023/11/05 01:08:07;;;;;;;;;12.00;11.40;;;;;11.66;100.00;96218.03;6212138;28;96743;-65
2023/11/05 01:11:10;;;;;;;;;10.00;9.00;;;;;11.54;100.00;96218.47;6231047;28;96283;-65
2023/11/05 01:14:14;;;;;;;;;6.60;6.00;;;;;11.68;100.00;96222.03;6198492;28;98889;-65
2023/11/05 01:17:19;;;;;;;;;11.00;10.00;;;;;11.44;100.00;96198.91;6230415;28;96289;-65
2023/11/05 01:20:24;;;;;;;;;6.50;6.50;;;;;11.38;100.00;96182.03;6227797;28;96986;-65
2023/11/05 01:23:28;;;;;;;;;8.00;8.00;;;;;11.58;100.00;96176.31;6228841;28;96356;-66
2023/11/05 01:26:31;;;;;;;;;7.40;7.00;;;;;11.35;100.00;96160.22;6193464;28;98722;-66
2023/11/05 01:29:34;;;;;;;;;9.60;9.60;;;;;11.48;100.00;96170.28;6228282;28;96762;-66
2023/11/05 01:32:39;;;;;;;;;6.20;6.20;;;;;11.46;100.00;96159.78;6227381;28;96346;-66
2023/11/05 01:35:42;;;;;;;;;9.60;8.60;;;;;11.73;100.00;96151.00;6209605;28;96346;-66
2023/11/05 01:38:45;;;;;;;;;9.00;9.00;;;;;11.93;100.00;96160.66;6227075;28;96708;-64
2023/11/05 01:41:48;;;;;;;;;6.00;6.00;;;;;11.88;100.00;96160.75;6192142;28;96834;-65
2023/11/05 01:44:51;;;;;;;;;11.00;10.60;;;;;11.97;100.00;96162.47;6233725;28;96314;-64
2023/11/05 01:47:56;;;;;;;;;9.00;9.00;;;;;12.33;100.00;96156.44;6234385;28;96311;-65
2023/11/05 01:51:08;;;;;;;;;9.80;8.20;;;;;12.55;100.00;96145.75;6214954;28;96562;-66
2023/11/05 01:54:12;;;;;;;;;7.75;7.75;;;;;12.54;100.00;96136.84;6233101;28;96439;-65
2023/11/05 01:57:15;;;;;;;;;9.00;8.20;;;;;12.26;100.00;96151.44;6233063;28;96346;-65
2023/11/05 02:00:21;;;;;;;;;8.40;7.80;;;;;12.30;100.00;96157.03;6215491;28;96349;-65
2023/11/05 02:03:28;;;;;;;;;8.50;8.25;;;;;12.46;100.00;96145.63;6189323;22;98702;-61
2023/11/05 02:06:31;;;;;;;;;8.40;7.00;;;;;12.55;100.00;96140.34;6212915;28;97649;-67
2023/11/05 02:09:35;;;;;;;;;7.60;7.40;;;;;12.70;100.00;96148.16;6179613;28;97108;-67
2023/11/05 02:12:38;;;;;;;;;6.80;6.80;;;;;12.77;100.00;96147.72;6214210;28;97513;-67
2023/11/05 02:15:41;;;;;;;;;9.80;7.00;;;;;12.88;100.00;96136.41;6214254;28;96412;-68
2023/11/05 02:18:45;;;;;;;;;8.40;8.00;;;;;12.92;100.00;96133.88;6193849;28;99507;-68
2023/11/05 02:21:53;;;;;;;;;7.60;7.60;;;;;12.96;100.00;96127.56;6172670;28;97092;-67
2023/11/05 02:24:58;;;;;;;;;11.00;10.00;;;;;13.01;100.00;96124.75;6172736;28;96933;-67
2023/11/05 02:28:02;;;;;;;;;7.60;7.60;;;;;13.09;100.00;96130.56;6190221;28;96519;-68
2023/11/05 02:31:06;;;;;;;;;9.40;8.60;;;;;13.10;100.00;96132.13;6155601;28;99808;-67
2023/11/05 02:34:09;;;;;;;;;7.00;6.00;;;;;13.12;100.00;96125.38;6190394;28;96897;-67
2023/11/05 02:37:12;;;;;;;;;5.00;4.40;;;;;13.07;100.00;96132.75;6190251;28;96986;-68
2023/11/05 02:40:16;;;;;;;;;8.00;8.00;;;;;13.14;100.00;96144.81;6172485;28;96918;-68
2023/11/05 02:43:20;;;;;;;;;7.40;7.40;;;;;13.20;100.00;96132.75;6190026;28;97021;-67
2023/11/05 02:46:23;;;;;;;;;8.00;7.60;;;;;13.05;100.00;96132.28;6171910;28;98513;-68
2023/11/05 02:49:26;;;;;;;;;9.00;8.00;;;;;13.12;100.00;96125.38;6155582;28;97881;-68
2023/11/05 02:52:30;;;;;;;;;7.00;7.00;;;;;13.28;100.00;96142.06;6204459;28;97102;-67
2023/11/05 02:55:34;;;;;;;;;5.00;5.00;;;;;13.40;100.00;96145.81;6212808;28;96838;-67
2023/11/05 02:58:37;;;;;;;;;9.40;8.40;;;;;13.49;100.00;96145.88;6173891;28;97045;-67
2023/11/05 03:01:40;;;;;;;;;5.00;5.00;;;;;13.57;100.00;96152.47;6179936;28;99638;-68
2023/11/05 03:04:44;;;;;;;;;6.50;6.25;;;;;13.60;100.00;96144.53;6188409;28;97582;-68
2023/11/05 03:07:47;;;;;;;;;3.00;2.00;;;;;13.56;100.00;96140.03;6171457;28;96874;-65
2023/11/05 03:10:51;;;;;;;;;4.00;4.00;;;;;13.61;100.00;96140.72;6148744;28;96665;-66
2023/11/05 03:13:54;;;;;;;;;2.20;1.60;;;;;13.64;100.00;96128.47;6165710;28;96555;-66
2023/11/05 03:16:57;;;;;;;;;4.00;4.00;;;;;13.81;100.00;96137.53;6189864;28;96732;-66
2023/11/05 03:20:00;;;;;;;;;3.20;3.20;;;;;14.07;100.00;96117.91;6215307;28;96806;-66
2023/11/05 03:23:03;;;;;;;;;3.60;3.00;;;;;14.25;100.00;96114.19;6193932;28;96805;-66
2023/11/05 03:26:08;;;;;;;;;1.20;1.20;;;;;14.39;100.00;96100.53;6167913;28;98439;-66
2023/11/05 03:29:11;;;;;;;;;4.00;4.00;;;;;14.47;100.00;96091.63;6189854;28;96392;-66
2023/11/05 03:32:15;;;;;;;;;6.50;6.50;;;;;14.55;100.00;96083.56;6190398;28;96531;-66
2023/11/05 03:35:18;;;;;;;;;3.40;2.40;;;;;14.65;100.00;96071.63;6189898;28;96466;-66
2023/11/05 03:38:21;;;;;;;;;3.00;3.00;;;;;14.74;100.00;96077.84;6190796;28;96343;-66
2023/11/05 03:41:26;;;;;;;;;3.00;3.00;;;;;14.77;100.00;96079.13;6190913;28;97636;-66
2023/11/05 03:44:29;;;;;;;;;4.00;4.00;;;;;14.86;100.00;96086.16;6190575;28;96377;-66
2023/11/05 03:47:32;;;;;;;;;3.00;3.00;;;;;14.91;100.00;96075.16;6190083;28;96459;-66
2023/11/05 03:50:35;;;;;;;;;3.00;3.00;;;;;14.92;100.00;96076.75;6190966;28;96399;-66
2023/11/05 03:53:39;;;;;;;;;2.00;2.00;;;;;15.00;100.00;96075.19;6188804;28;96876;-66
2023/11/05 03:56:44;;;;;;;;;2.00;2.00;;;;;15.09;100.00;96071.34;6172564;28;98880;-65
2023/11/05 03:59:47;;;;;;;;;4.00;4.00;;;;;15.13;100.00;96072.31;6189715;28;96366;-66
2023/11/05 04:02:50;;;;;;;;;3.00;3.00;;;;;15.13;100.00;96080.44;6179062;28;96414;-66
2023/11/05 04:05:53;;;;;;;;;5.00;5.00;;;;;15.17;100.00;96080.59;6213835;28;97578;-66
2023/11/05 04:08:56;;;;;;;;;2.60;2.60;;;;;15.15;100.00;96075.47;6225240;28;96583;-66
2023/11/05 04:12:01;;;;;;;;;3.40;3.40;;;;;15.18;100.00;96074.06;6214798;28;96320;-66
2023/11/05 04:15:06;;;;;;;;;3.00;3.00;;;;;15.04;100.00;96076.94;6212244;28;96284;-66
2023/11/05 04:18:09;;;;;;;;;5.00;5.00;;;;;15.05;100.00;96088.59;6207437;28;96870;-62
2023/11/05 04:21:13;;;;;;;;;5.00;5.00;;;;;14.99;100.00;96085.22;6237162;28;96685;-62
2023/11/05 04:24:16;;;;;;;;;4.00;4.00;;;;;15.04;100.00;96100.56;6216300;28;96704;-62
2023/11/05 04:27:20;;;;;;;;;4.00;4.00;;;;;15.05;100.00;96091.31;6208829;28;96556;-62
2023/11/05 04:30:23;;;;;;;;;4.80;3.80;;;;;14.99;100.00;96082.53;6213102;28;96233;-62
2023/11/05 04:33:26;;;;;;;;;2.80;2.80;;;;;15.05;100.00;96102.16;6211545;28;96596;-62
2023/11/05 04:36:30;;;;;;;;;3.00;3.00;;;;;15.00;100.00;96086.81;6186481;28;96641;-62
2023/11/05 04:39:33;;;;;;;;;2.80;2.80;;;;;15.02;100.00;96065.59;6207917;28;96876;-62
2023/11/05 04:42:38;;;;;;;;;3.33;3.33;;;;;15.07;100.00;96053.78;6193513;28;96515;-62
2023/11/05 04:45:41;;;;;;;;;4.00;4.00;;;;;15.16;100.00;96035.59;6192968;28;96784;-61
2023/11/05 04:48:44;;;;;;;;;5.00;5.00;;;;;15.19;100.00;96064.81;6183100;28;96690;-61
2023/11/05 04:51:47;;;;;;;;;6.00;6.00;;;;;15.24;100.00;96072.00;6211050;28;97117;-62
2023/11/05 04:54:50;;;;;;;;;5.00;5.00;;;;;15.23;100.00;96078.53;6192112;28;96681;-62
2023/11/05 04:57:55;;;;;;;;;5.00;5.00;;;;;15.25;100.00;96081.75;6204157;28;96544;-62
2023/11/05 05:00:58;;;;;;;;;6.00;6.00;;;;;15.24;100.00;96080.94;6192418;28;96452;-62
2023/11/05 05:04:01;;;;;;;;;2.40;2.40;;;;;15.27;100.00;96083.00;6208154;28;97619;-61
2023/11/05 05:07:04;;;;;;;;;3.40;3.40;;;;;15.25;100.00;96070.88;6207996;28;96597;-62
2023/11/05 05:10:08;;;;;;;;;4.00;4.00;;;;;15.28;100.00;96072.94;6185685;28;96940;-63
2023/11/05 05:13:14;;;;;;;;;3.00;3.00;;;;;15.28;100.00;96068.31;6194530;28;96935;-62
2023/11/05 05:16:18;;;;;;;;;2.75;2.75;;;;;15.18;100.00;96055.06;6204435;28;96268;-62
2023/11/05 05:19:21;;;;;;;;;4.00;4.00;;;;;15.24;100.00;96063.84;6197822;28;96562;-61
2023/11/05 05:22:24;;;;;;;;;4.33;4.33;;;;;15.23;100.00;96056.81;6208385;28;96559;-61
2023/11/05 05:25:28;;;;;;;;;7.00;6.40;;;;;15.19;100.00;96048.53;6198699;28;97070;-61
2023/11/05 05:28:32;;;;;;;;;6.00;6.00;;;;;15.15;100.00;96052.97;6177252;28;96846;-66
2023/11/05 05:31:35;;;;;;;;;6.00;6.00;;;;;15.06;100.00;96058.41;6202048;28;96377;-66
2023/11/05 05:34:38;;;;;;;;;5.00;5.00;;;;;15.02;100.00;96051.22;6207140;28;96651;-66
2023/11/05 05:37:41;;;;;;;;;6.00;6.00;;;;;14.98;100.00;96051.06;6200702;28;96491;-66
2023/11/05 05:40:45;;;;;;;;;4.20;4.20;;;;;14.93;100.00;96055.84;6196874;28;98688;-66
2023/11/05 05:43:49;;;;;;;;;4.00;4.00;;;;;14.88;100.00;96059.53;6214891;28;96867;-66
2023/11/05 05:46:52;;;;;;;;;3.50;3.50;;;;;14.85;100.00;96068.31;6179531;28;98601;-65
2023/11/05 05:49:55;;;;;;;;;4.00;4.00;;;;;14.83;100.00;96067.81;6211247;28;96455;-65
2023/11/05 05:52:59;;;;;;;;;5.00;4.00;;;;;14.84;100.00;96063.19;6210047;28;98463;-66
2023/11/05 05:56:02;;;;;;;;;3.75;3.00;;;;;14.85;100.00;96070.22;6214036;28;96635;-66
2023/11/05 05:59:06;;;;;;;;;3.00;3.00;;;;;14.88;100.00;96062.25;6200032;28;96836;-65
2023/11/05 06:02:09;;;;;;;;;2.20;2.20;;;;;14.92;100.00;96051.53;6192032;28;96434;-65
2023/11/05 06:05:12;;;;;;;;;3.00;3.00;;;;;14.95;100.00;96045.50;6171246;28;98430;-66
2023/11/05 06:08:16;;;;;;;;;3.80;3.80;;;;;14.97;100.00;96043.25;6196766;28;96818;-65
2023/11/05 06:11:20;;;;;;;;;4.60;4.00;;;;;15.01;100.00;96041.50;6194335;28;96927;-65
2023/11/05 06:14:26;;;;;;;;;3.00;3.00;;;;;15.05;100.00;96042.47;6211069;28;96515;-66
2023/11/05 06:17:43;;;;;;;;;2.00;2.00;;;;;15.07;100.00;96043.75;6211966;28;96566;-65
2023/11/05 06:20:46;;;;;;;;;3.00;3.00;;;;;15.02;100.00;96034.94;6216572;28;96410;-65
2023/11/05 06:23:49;;;;;;;;;2.00;1.00;;;;;15.17;100.00;96046.13;6214115;28;96322;-66
2023/11/05 06:26:52;;;;;;;;;3.00;3.00;;;;;15.26;100.00;96048.03;6173736;28;98442;-66
2023/11/05 06:29:58;;;;;;;;;4.00;2.60;;;;;15.29;100.00;96042.78;6196112;28;98564;-66
2023/11/05 06:33:01;;;;;;;;;4.60;4.60;;;;;15.26;100.00;96051.53;6180530;28;96684;-65
2023/11/05 06:36:05;;;;;;;;;3.00;2.00;;;;;15.16;100.00;96044.53;6192463;28;96363;-65
2023/11/05 06:39:09;;;;;;;;;1.00;1.00;;;;;15.21;100.00;96045.47;6205002;28;96811;-67
2023/11/05 06:42:12;;;;;;;;;4.00;4.00;;;;;15.20;100.00;96033.81;6204536;28;96695;-67
2023/11/05 06:45:16;;;;;;;;;3.50;3.00;;;;;15.25;100.00;96041.03;6214672;28;96487;-68
2023/11/05 06:48:19;;;;;;;;;2.40;2.40;;;;;15.29;100.00;96040.06;6177812;28;97970;-68
2023/11/05 06:51:22;;;;;;;;;2.75;2.75;;;;;15.40;100.00;96035.09;6186369;28;97597;-68
2023/11/05 06:54:27;;;;;;;;;4.00;4.00;;;;;15.44;100.00;96023.25;6205597;28;96958;-68
2023/11/05 06:57:30;;;;;;;;;2.25;2.25;;;;;15.49;100.00;96014.94;6199436;28;98480;-67
2023/11/05 07:00:35;;;;;;;;;2.00;2.00;;;;;15.52;100.00;96013.56;6210505;28;97168;-68
2023/11/05 07:03:38;;;;;;;;;4.00;3.40;;;;;15.65;100.00;96015.25;6193700;28;97488;-67
2023/11/05 07:06:41;;;;;;;;;4.00;4.00;;;;;15.71;100.00;96007.75;6212489;28;97071;-68
2023/11/05 07:09:44;;;;;;;;;4.40;4.00;;;;;15.78;100.00;96002.63;6193084;28;97008;-67
2023/11/05 07:12:47;;;;;;;;;3.00;3.00;;;;;15.83;100.00;95995.06;6212976;28;96620;-68
2023/11/05 07:15:52;;;;;;;;;5.00;5.00;;;;;15.89;100.00;96003.84;6213131;28;97536;-68
2023/11/05 07:18:56;;;;;;;;;5.00;3.50;;;;;15.92;100.00;96001.28;6212143;28;96512;-68
2023/11/05 07:21:59;;;;;;;;;3.00;3.00;;;;;15.98;100.00;95994.53;6184791;28;96570;-68
2023/11/05 07:25:05;;;;;;;;;3.00;3.00;;;;;15.97;100.00;95997.59;6195143;28;96886;-68
2023/11/05 07:28:09;;;;;;;;;3.00;3.00;;;;;15.94;100.00;95999.03;6202901;28;96682;-68
2023/11/05 07:31:16;;;;;;;;;3.60;3.60;;;;;15.89;100.00;95990.25;6187014;28;99587;-68
2023/11/05 07:34:19;;;;;;;;;3.00;2.25;;;;;15.70;100.00;95992.56;6193888;28;97845;-68
2023/11/05 07:37:22;;;;;;;;;5.40;5.40;;;;;15.58;100.00;96001.41;6197083;28;96965;-68
2023/11/05 07:40:25;;;;;;;;;5.00;4.60;;;;;15.20;100.00;96001.25;6215103;28;96727;-68
2023/11/05 07:43:29;;;;;;;;;5.60;5.60;;;;;15.26;100.00;96010.84;6193528;28;97034;-68
2023/11/05 07:46:35;;;;;;;;;4.00;3.00;;;;;15.20;100.00;96014.81;6210951;28;96642;-67
2023/11/05 07:49:38;;;;;;;;;4.40;4.40;;;;;15.10;100.00;96021.38;6175082;28;98738;-62
2023/11/05 07:52:42;;;;;;;;;4.00;4.00;;;;;15.24;100.00;96023.94;6192615;28;96995;-62
2023/11/05 07:55:46;;;;;;;;;6.00;6.00;;;;;15.05;100.00;96015.34;6190119;28;97319;-62
2023/11/05 07:58:50;;;;;;;;;7.00;6.60;;;;;15.20;100.00;96036.53;6211569;28;96468;-63
2023/11/05 08:01:55;;;;;;;;;7.00;7.00;;;;;15.27;100.00;96036.06;6177035;28;98532;-62
2023/11/05 08:04:58;;;;;;;;;6.00;5.60;;;;;15.05;100.00;96040.53;6191503;28;96697;-61
2023/11/05 08:08:01;;;;;;;;;7.00;7.00;;;;;15.03;100.00;96040.06;6173209;28;96723;-62
2023/11/05 08:11:04;;;;;;;;;6.00;6.00;;;;;15.12;100.00;96035.44;6192046;28;98524;-61
2023/11/05 08:14:10;;;;;;;;;4.00;4.00;;;;;15.10;100.00;96024.09;6209219;28;96893;-62
2023/11/05 08:17:14;;;;;;;;;7.00;6.00;;;;;15.04;100.00;96028.09;6205529;28;96962;-62
2023/11/05 08:20:18;;;;;;;;;4.25;4.25;;;;;15.06;100.00;96027.75;6196825;28;96337;-61
2023/11/05 08:23:21;;;;;;;;;4.00;4.00;;;;;15.00;100.00;96015.50;6210088;28;96447;-61
2023/11/05 08:26:25;;;;;;;;;2.00;2.00;;;;;14.95;100.00;96010.25;6191373;28;96702;-61
2023/11/05 08:29:31;;;;;;;;;1.60;1.60;;;;;15.03;100.00;96010.22;6210908;28;96787;-61
2023/11/05 08:32:36;;;;;;;;;2.00;2.00;;;;;14.84;100.00;96017.09;6211910;28;96696;-61
2023/11/05 08:35:39;;;;;;;;;3.60;2.60;;;;;14.64;100.00;96018.50;6203579;28;96898;-61
2023/11/05 08:38:42;;;;;;;;;2.00;2.00;;;;;14.40;100.00;96026.28;6183760;28;96946;-63
2023/11/05 08:41:45;;;;;;;;;3.00;2.25;;;;;14.50;100.00;96032.19;6197904;28;96805;-61
2023/11/05 08:44:48;;;;;;;;;4.00;4.00;;;;;14.40;100.00;96027.06;6194406;28;96741;-62
2023/11/05 08:47:53;;;;;;;;;5.00;4.00;;;;;14.41;100.00;96031.38;6193221;28;96733;-64
2023/11/05 08:50:56;;;;;;;;;4.00;3.20;;;;;14.29;100.00;96014.88;6192360;28;96816;-62
2023/11/05 08:53:59;;;;;;;;;4.60;4.60;;;;;14.53;100.00;96022.63;6209743;28;96659;-61
2023/11/05 08:57:02;;;;;;;;;4.00;4.00;;;;;14.49;100.00;96016.25;6196609;28;97446;-62
2023/11/05 09:00:11;;;;;;;;;5.00;5.00;;;;;14.51;100.00;96014.03;6206839;28;97455;-68
2023/11/05 09:03:16;;;;;;;;;4.60;4.20;;;;;14.48;100.00;96011.94;6214106;28;96386;-67
2023/11/05 09:06:20;;;;;;;;;4.00;4.00;;;;;14.64;100.00;96007.66;6197750;28;96476;-67
2023/11/05 09:09:23;;;;;;;;;3.00;3.00;;;;;14.72;100.00;96006.84;6201672;28;97526;-68
2023/11/05 09:12:28;;;;;;;;;3.00;3.00;;;;;14.80;100.00;96006.09;6193490;28;96751;-68
2023/11/05 09:15:31;;;;;;;;;3.20;3.20;;;;;14.76;100.00;96007.03;6208585;28;96581;-68
2023/11/05 09:18:36;;;;;;;;;3.00;3.00;;;;;14.80;100.00;96008.78;6203214;28;97696;-68
2023/11/05 09:21:41;;;;;;;;;4.00;4.00;;;;;14.87;100.00;96011.81;6211588;28;96701;-68
2023/11/05 09:24:45;;;;;;;;;6.00;6.00;;;;;14.84;100.00;96007.03;6212203;28;96900;-68
2023/11/05 09:27:49;;;;;;;;;6.60;6.60;;;;;14.90;100.00;95999.53;6185185;28;97394;-67
2023/11/05 09:30:53;;;;;;;;;4.00;4.00;;;;;14.94;100.00;95989.66;6208998;28;96513;-68
2023/11/05 09:33:58;;;;;;;;;4.00;3.75;;;;;15.01;100.00;95987.25;6179687;28;98456;-68
2023/11/05 09:37:02;;;;;;;;;6.00;5.00;;;;;15.05;100.00;95972.72;6192928;28;96974;-68
2023/11/05 09:40:06;;;;;;;;;6.00;6.00;;;;;15.08;100.00;95960.44;6190424;28;96739;-68
2023/11/05 09:43:10;;;;;;;;;4.00;3.40;;;;;15.08;100.00;95957.72;6208805;28;96417;-68
2023/11/05 09:46:14;;;;;;;;;5.00;5.00;;;;;15.07;100.00;95954.22;6191165;28;96421;-67
2023/11/05 09:49:19;;;;;;;;;6.40;6.40;;;;;15.06;100.00;95944.47;6179159;28;96630;-68
2023/11/05 09:52:22;;;;;;;;;6.60;6.00;;;;;15.09;100.00;95932.19;6191929;28;100149;-68
2023/11/05 09:55:26;;;;;;;;;5.00;5.00;;;;;15.14;100.00;95921.16;6209963;28;96378;-68
2023/11/05 09:58:29;;;;;;;;;4.00;3.00;;;;;15.15;100.00;95925.44;6182626;28;98381;-68
2023/11/05 10:01:35;;;;;;;;;4.80;4.00;;;;;15.18;100.00;95908.53;6190804;28;97194;-67
2023/11/05 10:04:41;;;;;;;;;5.60;4.60;;;;;15.19;100.00;95902.00;6192632;28;96599;-68
2023/11/05 10:07:44;;;;;;;;;4.80;4.00;;;;;15.27;100.00;95879.47;6210137;28;97089;-65
2023/11/05 10:10:47;;;;;;;;;5.00;5.00;;;;;15.33;100.00;95864.59;6193951;28;98460;-66
2023/11/05 10:13:51;;;;;;;;;5.00;5.00;;;;;15.39;100.00;95859.78;6190919;28;96842;-66
2023/11/05 10:16:54;;;;;;;;;4.00;3.80;;;;;15.44;100.00;95852.25;6201220;28;96421;-66
2023/11/05 10:19:59;;;;;;;;;4.00;4.00;;;;;15.44;100.00;95856.91;6214464;28;96426;-66
2023/11/05 10:23:04;;;;;;;;;4.40;4.40;;;;;15.46;100.00;95871.72;6195950;28;96715;-66
2023/11/05 10:26:07;;;;;;;;;7.00;6.40;;;;;15.47;100.00;95865.19;6210176;28;97798;-66
2023/11/05 10:29:11;;;;;;;;;5.20;5.20;;;;;15.44;100.00;95871.25;6194565;28;96239;-66
2023/11/05 10:32:14;;;;;;;;;5.00;5.00;;;;;15.43;100.00;95872.38;6210096;28;96274;-66
2023/11/05 10:35:19;;;;;;;;;6.00;6.00;;;;;15.43;100.00;95872.38;6194683;28;99689;-66
2023/11/05 10:38:25;;;;;;;;;7.00;5.25;;;;;15.37;100.00;95851.97;6186353;28;96401;-66
2023/11/05 10:41:29;;;;;;;;;6.40;6.00;;;;;15.32;100.00;95838.59;6194676;28;96694;-66
2023/11/05 10:44:35;;;;;;;;;4.75;4.00;;;;;15.31;100.00;95839.69;6207673;28;97853;-67
2023/11/05 10:47:39;;;;;;;;;6.00;5.33;;;;;15.34;100.00;95844.50;6211242;28;96650;-66
2023/11/05 10:50:47;;;;;;;;;6.00;5.75;;;;;15.34;100.00;95838.25;6210763;28;97606;-66
2023/11/05 10:53:53;;;;;;;;;5.00;5.00;;;;;15.37;100.00;95843.03;6201658;28;96486;-66
2023/11/05 10:56:56;;;;;;;;;7.00;6.80;;;;;15.37;100.00;95819.41;6211333;28;96894;-65
2023/11/05 11:00:00;;;;;;;;;7.00;6.25;;;;;15.39;100.00;95787.31;6193871;28;97915;-67
2023/11/05 11:03:04;;;;;;;;;5.60;5.60;;;;;15.40;100.00;95777.22;6172270;28;98503;-66
2023/11/05 11:06:08;;;;;;;;;6.20;6.00;;;;;15.50;100.00;95760.56;6185859;28;96889;-66
2023/11/05 11:09:22;;;;;;;;;8.40;8.00;;;;;15.54;100.00;95748.75;6215231;28;96431;-66
2023/11/05 11:12:31;;;;;;;;;6.00;5.80;;;;;15.56;100.00;95724.78;6214683;28;97511;-66
2023/11/05 11:15:37;;;;;;;;;6.60;6.40;;;;;15.63;100.00;95726.19;6189789;28;98672;-66
2023/11/05 11:18:42;;;;;;;;;6.00;5.60;;;;;15.62;100.00;95736.25;6191436;28;97403;-66
2023/11/05 11:22:00;;;;;;;;;6.60;6.60;;;;;15.59;100.00;95753.19;6190271;28;96955;-71
2023/11/05 11:25:07;;;;;;;;;7.00;7.00;;;;;15.62;100.00;95759.91;6191612;28;96524;-70
2023/11/05 11:28:11;;;;;;;;;8.00;7.00;;;;;15.63;100.00;95802.22;6213552;28;96352;-63
2023/11/05 11:31:14;;;;;;;;;4.60;4.60;;;;;15.66;100.00;95832.22;6212644;28;96302;-64
2023/11/05 11:34:20;;;;;;;;;6.25;6.00;;;;;15.59;100.00;95840.88;6214000;28;97769;-66
2023/11/05 11:37:25;;;;;;;;;4.00;4.00;;;;;15.52;100.00;95824.31;6218338;28;96819;-65
2023/11/05 11:40:28;;;;;;;;;7.00;7.00;;;;;15.49;100.00;95830.34;6192319;28;96449;-65
2023/11/05 11:43:31;;;;;;;;;4.25;4.25;;;;;15.48;100.00;95830.69;6212407;28;96350;-66
2023/11/05 11:46:35;;;;;;;;;8.60;8.60;;;;;15.50;100.00;95817.56;6210072;28;96924;-67
2023/11/05 11:49:39;;;;;;;;;6.40;6.00;;;;;15.48;100.00;95811.69;6208447;28;97115;-64
2023/11/05 11:52:48;;;;;;;;;5.00;5.00;;;;;15.37;100.00;95822.13;6210231;28;96909;-64
2023/11/05 11:55:52;;;;;;;;;7.00;6.00;;;;;15.34;100.00;95828.22;6194407;28;97508;-65
2023/11/05 11:58:57;;;;;;;;;7.00;6.40;;;;;15.31;100.00;95823.41;6212445;28;96372;-66
2023/11/05 12:02:02;;;;;;;;;8.00;7.00;;;;;15.36;100.00;95825.94;6176974;28;96750;-64
2023/11/05 12:05:07;;;;;;;;;9.00;8.00;;;;;15.39;100.00;95827.22;6212199;28;96636;-65
2023/11/05 12:08:13;;;;;;;;;7.50;7.00;;;;;15.42;100.00;95819.22;6217397;28;96344;-65
2023/11/05 12:11:17;;;;;;;;;8.00;7.60;;;;;15.40;100.00;95823.38;6197433;28;96302;-66
2023/11/05 12:14:21;;;;;;;;;9.00;7.20;;;;;15.39;100.00;95814.44;6199442;28;97194;-66
2023/11/05 12:17:25;;;;;;;;;8.00;8.00;;;;;15.42;100.00;95805.66;6206673;28;96440;-65
2023/11/05 12:20:28;;;;;;;;;7.20;7.00;;;;;15.44;100.00;95802.63;6203933;28;96590;-64
2023/11/05 12:23:32;;;;;;;;;8.80;8.00;;;;;15.53;100.00;95814.25;6183090;28;97114;-64
2023/11/05 12:26:39;;;;;;;;;7.50;6.50;;;;;15.60;100.00;95837.03;6200980;28;96478;-64
2023/11/05 12:29:43;;;;;;;;;8.75;7.00;;;;;15.63;100.00;95865.47;6180165;28;98184;-65
2023/11/05 12:32:46;;;;;;;;;6.00;6.00;;;;;15.66;100.00;95877.56;6193024;28;96900;-65
2023/11/05 12:35:50;;;;;;;;;8.80;8.00;;;;;15.64;100.00;95869.75;6198222;28;98382;-63
2023/11/05 12:38:54;;;;;;;;;6.60;6.00;;;;;15.57;100.00;95873.00;6183293;28;99144;-64
2023/11/05 12:41:57;;;;;;;;;5.00;5.00;;;;;15.61;100.00;95870.41;6194119;28;96273;-64
2023/11/05 12:45:01;;;;;;;;;6.00;5.00;;;;;15.59;100.00;95859.88;6209935;28;97514;-64
2023/11/05 12:48:08;;;;;;;;;7.50;7.50;;;;;15.68;100.00;95868.00;6225196;28;96475;-64
2023/11/05 12:51:11;;;;;;;;;6.00;5.40;;;;;15.72;100.00;95858.06;6195951;28;96357;-65
2023/11/05 12:54:15;;;;;;;;;7.20;6.20;;;;;15.73;100.00;95856.16;6193016;28;96443;-64
2023/11/05 12:57:19;;;;;;;;;7.00;7.00;;;;;15.73;100.00;95853.44;6198248;28;96333;-65
2023/11/05 13:00:22;;;;;;;;;7.33;6.67;;;;;15.74;100.00;95836.00;6196380;28;96917;-66
2023/11/05 13:03:26;;;;;;;;;10.00;9.00;;;;;15.69;100.00;95855.19;6196622;28;97569;-65
2023/11/05 13:06:31;;;;;;;;;7.50;7.00;;;;;15.62;100.00;95860.34;6198778;28;96737;-64
2023/11/05 13:09:36;;;;;;;;;8.00;7.00;;;;;15.55;100.00;95852.72;6209824;28;96231;-64
2023/11/05 13:12:39;;;;;;;;;7.00;7.00;;;;;15.58;100.00;95861.03;6197589;28;96303;-65
2023/11/05 13:15:42;;;;;;;;;8.60;8.00;;;;;15.68;100.00;95867.19;6187785;28;98506;-66
2023/11/05 13:18:46;;;;;;;;;9.60;9.00;;;;;15.71;100.00;95874.69;6205765;28;96536;-65
2023/11/05 13:21:49;;;;;;;;;8.00;8.00;;;;;15.72;100.00;95887.13;6172863;28;97620;-65
2023/11/05 13:24:53;;;;;;;;;8.00;6.75;;;;;15.70;100.00;95878.50;6204741;28;96581;-65
2023/11/05 13:27:57;;;;;;;;;10.40;10.00;;;;;15.68;100.00;95887.00;6187459;28;96706;-65
2023/11/05 13:31:02;;;;;;;;;8.25;8.00;;;;;15.60;100.00;95885.09;6191177;28;96487;-64
2023/11/05 13:34:05;;;;;;;;;8.00;7.60;;;;;15.57;100.00;95892.00;6187516;28;96463;-64
2023/11/05 13:37:09;;;;;;;;;6.60;6.60;;;;;15.47;100.00;95884.19;6214367;27;96785;-64
2023/11/05 13:40:15;;;;;;;;;7.00;7.00;;;;;15.38;100.00;95878.00;6212947;28;96642;-64
2023/11/05 13:43:21;;;;;;;;;8.60;7.40;;;;;15.40;100.00;95861.38;6179745;28;97271;-64
2023/11/05 13:46:24;;;;;;;;;7.40;6.60;;;;;15.40;100.00;95864.09;6217631;28;96481;-64
2023/11/05 13:49:27;;;;;;;;;6.00;6.00;;;;;15.41;100.00;95858.34;6199053;28;96702;-64
2023/11/05 13:52:30;;;;;;;;;9.80;8.00;;;;;15.41;100.00;95871.09;6192747;28;98391;-66
2023/11/05 13:55:35;;;;;;;;;8.40;7.00;;;;;15.50;100.00;95874.56;6193580;28;96958;-64
2023/11/05 13:58:38;;;;;;;;;6.00;6.00;;;;;15.60;100.00;95874.25;6195156;28;97401;-65
2023/11/05 14:01:42;;;;;;;;;9.00;9.00;;;;;15.76;100.00;95869.06;6216088;28;96987;-64
2023/11/05 14:04:45;;;;;;;;;11.00;11.00;;;;;15.88;100.00;95878.09;6194772;28;98771;-66
2023/11/05 14:07:48;;;;;;;;;11.00;11.00;;;;;16.18;100.00;95872.63;6195642;28;96457;-64
2023/11/05 14:10:53;;;;;;;;;11.00;11.00;;;;;16.54;100.00;95870.13;6180741;28;97087;-64
2023/11/05 14:13:58;;;;;;;;;14.60;13.60;;;;;16.88;100.00;95875.28;6188087;28;96568;-64